sensor_id;sensor_type;location;lat;lon;timestamp;P1;durP1;ratioP1;P2;durP2;ratioP2
4132;SDS011;2080;51.038;7.008;2022-10-15T00:02:14;998.37;;;907.23;;
4132;SDS011;2080;51.038;7.008;2022-10-15T00:04:39;914.00;;;829.37;;
4132;SDS011;2080;51.038;7.008;2022-10-15T00:07:07;865.40;;;787.67;;
4132;SDS011;2080;51.038;7.008;2022-10-15T00:09:32;972.33;;;882.90;;
4132;SDS011;2080;51.038;7.008;2022-10-15T00:12:00;920.63;;;835.93;;
4132;SDS011;2080;51.038;7.008;2022-10-15T00:14:25;995.27;;;906.40;;
4132;SDS011;2080;51.038;7.008;2022-10-15T00:16:51;956.47;;;870.13;;
4132;SDS011;2080;51.038;7.008;2022-10-15T00:19:18;1008.63;;;916.93;;
4132;SDS011;2080;51.038;7.008;2022-10-15T00:21:44;1018.10;;;924.20;;
4132;SDS011;2080;51.038;7.008;2022-10-15T00:24:09;969.20;;;879.17;;
4132;SDS011;2080;51.038;7.008;2022-10-15T00:26:37;1048.67;;;952.17;;
4132;SDS011;2080;51.038;7.008;2022-10-15T00:29:02;999.87;;;906.40;;
4132;SDS011;2080;51.038;7.008;2022-10-15T00:31:31;971.77;;;882.90;;
4132;SDS011;2080;51.038;7.008;2022-10-15T00:34:01;1082.40;;;981.83;;
4132;SDS011;2080;51.038;7.008;2022-10-15T00:36:31;1061.53;;;963.87;;
4132;SDS011;2080;51.038;7.008;2022-10-15T00:39:00;945.80;;;858.80;;
4132;SDS011;2080;51.038;7.008;2022-10-15T00:41:31;1052.90;;;956.50;;
4132;SDS011;2080;51.038;7.008;2022-10-15T00:44:00;1015.53;;;924.27;;
4132;SDS011;2080;51.038;7.008;2022-10-15T00:47:05;955.70;;;869.77;;
4132;SDS011;2080;51.038;7.008;2022-10-15T00:49:38;833.00;;;756.97;;
4132;SDS011;2080;51.038;7.008;2022-10-15T00:52:14;939.53;;;854.10;;
4132;SDS011;2080;51.038;7.008;2022-10-15T00:54:46;993.20;;;904.43;;
4132;SDS011;2080;51.038;7.008;2022-10-15T00:57:16;973.93;;;886.00;;
4132;SDS011;2080;51.038;7.008;2022-10-15T00:59:46;960.43;;;871.33;;
4132;SDS011;2080;51.038;7.008;2022-10-15T01:02:14;981.90;;;892.57;;
4132;SDS011;2080;51.038;7.008;2022-10-15T01:04:44;979.73;;;890.57;;
4132;SDS011;2080;51.038;7.008;2022-10-15T01:07:10;961.03;;;871.20;;
4132;SDS011;2080;51.038;7.008;2022-10-15T01:09:36;997.30;;;905.87;;
4132;SDS011;2080;51.038;7.008;2022-10-15T01:12:02;1076.07;;;975.70;;
4132;SDS011;2080;51.038;7.008;2022-10-15T01:14:43;950.17;;;863.10;;
4132;SDS011;2080;51.038;7.008;2022-10-15T01:17:28;970.13;;;881.13;;
4132;SDS011;2080;51.038;7.008;2022-10-15T01:31:12;890.97;;;808.70;;
4132;SDS011;2080;51.038;7.008;2022-10-15T01:34:07;969.30;;;882.03;;
4132;SDS011;2080;51.038;7.008;2022-10-15T01:39:17;925.60;;;842.67;;
4132;SDS011;2080;51.038;7.008;2022-10-15T01:41:53;960.70;;;874.27;;
4132;SDS011;2080;51.038;7.008;2022-10-15T01:44:39;878.87;;;801.43;;
4132;SDS011;2080;51.038;7.008;2022-10-15T01:47:20;965.20;;;877.17;;
4132;SDS011;2080;51.038;7.008;2022-10-15T01:49:54;963.87;;;874.40;;
4132;SDS011;2080;51.038;7.008;2022-10-15T01:52:28;1012.67;;;923.23;;
4132;SDS011;2080;51.038;7.008;2022-10-15T01:54:57;965.93;;;878.67;;
4132;SDS011;2080;51.038;7.008;2022-10-15T01:57:25;840.53;;;764.73;;
4132;SDS011;2080;51.038;7.008;2022-10-15T01:59:54;1009.83;;;917.37;;
4132;SDS011;2080;51.038;7.008;2022-10-15T02:02:21;998.50;;;909.23;;
4132;SDS011;2080;51.038;7.008;2022-10-15T02:04:49;851.37;;;773.67;;
4132;SDS011;2080;51.038;7.008;2022-10-15T02:07:15;873.97;;;795.27;;
4132;SDS011;2080;51.038;7.008;2022-10-15T02:09:57;793.27;;;720.03;;
4132;SDS011;2080;51.038;7.008;2022-10-15T02:12:37;968.80;;;883.50;;
4132;SDS011;2080;51.038;7.008;2022-10-15T02:17:57;955.17;;;869.60;;
4132;SDS011;2080;51.038;7.008;2022-10-15T02:20:31;903.80;;;822.47;;
4132;SDS011;2080;51.038;7.008;2022-10-15T02:24:10;879.27;;;801.00;;
4132;SDS011;2080;51.038;7.008;2022-10-15T02:26:29;838.67;;;764.03;;
4132;SDS011;2080;51.038;7.008;2022-10-15T02:28:56;903.40;;;823.73;;
4132;SDS011;2080;51.038;7.008;2022-10-15T02:31:24;937.13;;;852.20;;
4132;SDS011;2080;51.038;7.008;2022-10-15T02:33:52;879.70;;;801.20;;
4132;SDS011;2080;51.038;7.008;2022-10-15T02:36:21;961.00;;;874.37;;
4132;SDS011;2080;51.038;7.008;2022-10-15T02:38:46;1005.07;;;916.07;;
4132;SDS011;2080;51.038;7.008;2022-10-15T02:41:14;1001.80;;;911.83;;
4132;SDS011;2080;51.038;7.008;2022-10-15T02:43:40;914.10;;;830.70;;
4132;SDS011;2080;51.038;7.008;2022-10-15T02:46:06;857.87;;;779.93;;
4132;SDS011;2080;51.038;7.008;2022-10-15T02:48:32;904.50;;;822.47;;
4132;SDS011;2080;51.038;7.008;2022-10-15T02:51:00;816.23;;;743.87;;
4132;SDS011;2080;51.038;7.008;2022-10-15T02:53:31;944.03;;;858.13;;
4132;SDS011;2080;51.038;7.008;2022-10-15T02:55:56;951.53;;;863.17;;
4132;SDS011;2080;51.038;7.008;2022-10-15T02:58:22;889.57;;;806.50;;
4132;SDS011;2080;51.038;7.008;2022-10-15T03:00:49;892.97;;;810.27;;
4132;SDS011;2080;51.038;7.008;2022-10-15T03:03:17;990.10;;;900.53;;
4132;SDS011;2080;51.038;7.008;2022-10-15T03:05:45;939.40;;;853.70;;
4132;SDS011;2080;51.038;7.008;2022-10-15T03:08:10;932.83;;;846.47;;
4132;SDS011;2080;51.038;7.008;2022-10-15T03:10:36;912.23;;;828.20;;
4132;SDS011;2080;51.038;7.008;2022-10-15T03:13:02;936.30;;;849.40;;
4132;SDS011;2080;51.038;7.008;2022-10-15T03:15:28;875.90;;;796.47;;
4132;SDS011;2080;51.038;7.008;2022-10-15T03:17:54;943.60;;;854.43;;
4132;SDS011;2080;51.038;7.008;2022-10-15T03:20:19;916.60;;;830.17;;
4132;SDS011;2080;51.038;7.008;2022-10-15T03:22:44;1000.40;;;907.73;;
4132;SDS011;2080;51.038;7.008;2022-10-15T03:25:10;950.07;;;860.87;;
4132;SDS011;2080;51.038;7.008;2022-10-15T03:27:35;928.80;;;843.77;;
4132;SDS011;2080;51.038;7.008;2022-10-15T03:30:03;978.43;;;887.40;;
4132;SDS011;2080;51.038;7.008;2022-10-15T03:32:28;905.17;;;820.47;;
4132;SDS011;2080;51.038;7.008;2022-10-15T03:34:54;884.87;;;803.37;;
4132;SDS011;2080;51.038;7.008;2022-10-15T03:37:19;915.80;;;830.83;;
4132;SDS011;2080;51.038;7.008;2022-10-15T03:39:46;883.13;;;802.47;;
4132;SDS011;2080;51.038;7.008;2022-10-15T03:42:12;973.77;;;883.67;;
4132;SDS011;2080;51.038;7.008;2022-10-15T03:44:40;904.43;;;820.93;;
4132;SDS011;2080;51.038;7.008;2022-10-15T03:47:05;902.47;;;817.47;;
4132;SDS011;2080;51.038;7.008;2022-10-15T03:49:30;953.37;;;864.57;;
4132;SDS011;2080;51.038;7.008;2022-10-15T03:51:56;893.00;;;812.10;;
4132;SDS011;2080;51.038;7.008;2022-10-15T03:54:21;986.67;;;895.80;;
4132;SDS011;2080;51.038;7.008;2022-10-15T03:56:49;842.03;;;764.43;;
4132;SDS011;2080;51.038;7.008;2022-10-15T03:59:17;937.03;;;853.07;;
4132;SDS011;2080;51.038;7.008;2022-10-15T04:01:46;990.90;;;898.60;;
4132;SDS011;2080;51.038;7.008;2022-10-15T04:04:15;942.83;;;856.40;;
4132;SDS011;2080;51.038;7.008;2022-10-15T04:06:40;841.27;;;764.57;;
4132;SDS011;2080;51.038;7.008;2022-10-15T04:09:05;994.63;;;904.00;;
4132;SDS011;2080;51.038;7.008;2022-10-15T04:11:31;958.53;;;869.23;;
4132;SDS011;2080;51.038;7.008;2022-10-15T04:13:59;1008.33;;;917.07;;
4132;SDS011;2080;51.038;7.008;2022-10-15T04:16:26;945.37;;;859.40;;
4132;SDS011;2080;51.038;7.008;2022-10-15T04:18:51;868.83;;;788.27;;
4132;SDS011;2080;51.038;7.008;2022-10-15T04:21:19;821.97;;;745.73;;
4132;SDS011;2080;51.038;7.008;2022-10-15T04:23:47;867.90;;;788.80;;
4132;SDS011;2080;51.038;7.008;2022-10-15T04:26:12;851.10;;;772.77;;
4132;SDS011;2080;51.038;7.008;2022-10-15T04:28:37;842.73;;;765.20;;
4132;SDS011;2080;51.038;7.008;2022-10-15T04:31:05;1002.57;;;911.23;;
4132;SDS011;2080;51.038;7.008;2022-10-15T04:33:31;891.77;;;811.17;;
4132;SDS011;2080;51.038;7.008;2022-10-15T04:36:05;938.47;;;852.50;;
4132;SDS011;2080;51.038;7.008;2022-10-15T04:38:33;871.17;;;792.13;;
4132;SDS011;2080;51.038;7.008;2022-10-15T04:41:01;865.57;;;786.27;;
4132;SDS011;2080;51.038;7.008;2022-10-15T04:43:31;959.97;;;872.77;;
4132;SDS011;2080;51.038;7.008;2022-10-15T04:46:00;872.03;;;791.60;;
4132;SDS011;2080;51.038;7.008;2022-10-15T04:48:27;950.40;;;864.83;;
4132;SDS011;2080;51.038;7.008;2022-10-15T04:50:54;1013.17;;;922.73;;
4132;SDS011;2080;51.038;7.008;2022-10-15T04:53:22;869.77;;;790.93;;
4132;SDS011;2080;51.038;7.008;2022-10-15T04:55:50;947.53;;;861.90;;
4132;SDS011;2080;51.038;7.008;2022-10-15T04:58:17;1054.90;;;958.87;;
4132;SDS011;2080;51.038;7.008;2022-10-15T05:00:42;967.23;;;878.57;;
4132;SDS011;2080;51.038;7.008;2022-10-15T05:03:08;933.87;;;848.50;;
4132;SDS011;2080;51.038;7.008;2022-10-15T05:05:33;892.57;;;810.57;;
4132;SDS011;2080;51.038;7.008;2022-10-15T05:08:02;891.97;;;810.80;;
4132;SDS011;2080;51.038;7.008;2022-10-15T05:10:32;911.93;;;828.90;;
4132;SDS011;2080;51.038;7.008;2022-10-15T05:12:58;890.47;;;810.07;;
4132;SDS011;2080;51.038;7.008;2022-10-15T05:15:28;898.63;;;816.43;;
4132;SDS011;2080;51.038;7.008;2022-10-15T05:17:53;866.13;;;786.57;;
4132;SDS011;2080;51.038;7.008;2022-10-15T05:20:18;877.17;;;796.90;;
4132;SDS011;2080;51.038;7.008;2022-10-15T05:22:44;960.53;;;873.20;;
4132;SDS011;2080;51.038;7.008;2022-10-15T05:25:09;901.80;;;820.37;;
4132;SDS011;2080;51.038;7.008;2022-10-15T05:27:34;885.33;;;803.50;;
4132;SDS011;2080;51.038;7.008;2022-10-15T05:30:00;843.47;;;766.80;;
4132;SDS011;2080;51.038;7.008;2022-10-15T05:32:28;873.60;;;794.43;;
4132;SDS011;2080;51.038;7.008;2022-10-15T05:34:56;908.63;;;827.40;;
4132;SDS011;2080;51.038;7.008;2022-10-15T05:37:21;861.73;;;782.73;;
4132;SDS011;2080;51.038;7.008;2022-10-15T05:39:49;795.93;;;725.60;;
4132;SDS011;2080;51.038;7.008;2022-10-15T05:42:15;816.50;;;744.27;;
4132;SDS011;2080;51.038;7.008;2022-10-15T05:44:40;774.73;;;705.90;;
4132;SDS011;2080;51.038;7.008;2022-10-15T05:47:08;849.83;;;774.50;;
4132;SDS011;2080;51.038;7.008;2022-10-15T05:49:36;973.00;;;886.87;;
4132;SDS011;2080;51.038;7.008;2022-10-15T05:52:04;910.43;;;827.47;;
4132;SDS011;2080;51.038;7.008;2022-10-15T05:54:34;820.87;;;746.80;;
4132;SDS011;2080;51.038;7.008;2022-10-15T05:56:59;894.10;;;814.13;;
4132;SDS011;2080;51.038;7.008;2022-10-15T05:59:25;984.43;;;894.83;;
4132;SDS011;2080;51.038;7.008;2022-10-15T06:01:52;869.77;;;790.43;;
4132;SDS011;2080;51.038;7.008;2022-10-15T06:04:17;872.67;;;794.23;;
4132;SDS011;2080;51.038;7.008;2022-10-15T06:06:43;817.47;;;743.27;;
4132;SDS011;2080;51.038;7.008;2022-10-15T06:09:10;959.03;;;872.27;;
4132;SDS011;2080;51.038;7.008;2022-10-15T06:11:41;750.17;;;682.37;;
4132;SDS011;2080;51.038;7.008;2022-10-15T06:14:08;850.93;;;773.97;;
4132;SDS011;2080;51.038;7.008;2022-10-15T06:16:36;757.07;;;688.67;;
4132;SDS011;2080;51.038;7.008;2022-10-15T06:19:04;698.43;;;633.83;;
4132;SDS011;2080;51.038;7.008;2022-10-15T06:21:30;748.67;;;681.93;;
4132;SDS011;2080;51.038;7.008;2022-10-15T06:23:55;741.10;;;674.03;;
4132;SDS011;2080;51.038;7.008;2022-10-15T06:26:23;835.40;;;760.30;;
4132;SDS011;2080;51.038;7.008;2022-10-15T06:28:48;896.60;;;816.33;;
4132;SDS011;2080;51.038;7.008;2022-10-15T06:31:14;915.97;;;834.33;;
4132;SDS011;2080;51.038;7.008;2022-10-15T06:33:44;835.37;;;759.23;;
4132;SDS011;2080;51.038;7.008;2022-10-15T06:36:09;797.87;;;726.07;;
4132;SDS011;2080;51.038;7.008;2022-10-15T06:38:35;868.90;;;791.40;;
4132;SDS011;2080;51.038;7.008;2022-10-15T06:41:07;852.93;;;774.37;;
4132;SDS011;2080;51.038;7.008;2022-10-15T06:43:37;814.07;;;740.17;;
4132;SDS011;2080;51.038;7.008;2022-10-15T06:46:03;863.83;;;785.70;;
4132;SDS011;2080;51.038;7.008;2022-10-15T06:48:32;736.00;;;668.93;;
4132;SDS011;2080;51.038;7.008;2022-10-15T06:51:02;721.20;;;655.73;;
4132;SDS011;2080;51.038;7.008;2022-10-15T06:53:28;741.67;;;675.00;;
4132;SDS011;2080;51.038;7.008;2022-10-15T06:56:01;667.47;;;606.20;;
4132;SDS011;2080;51.038;7.008;2022-10-15T06:58:30;650.57;;;589.63;;
4132;SDS011;2080;51.038;7.008;2022-10-15T07:00:58;865.30;;;787.63;;
4132;SDS011;2080;51.038;7.008;2022-10-15T07:03:28;662.63;;;601.80;;
4132;SDS011;2080;51.038;7.008;2022-10-15T07:05:59;752.83;;;687.10;;
4132;SDS011;2080;51.038;7.008;2022-10-15T07:08:31;779.90;;;708.80;;
4132;SDS011;2080;51.038;7.008;2022-10-15T07:10:57;819.33;;;745.57;;
4132;SDS011;2080;51.038;7.008;2022-10-15T07:13:22;878.63;;;799.63;;
4132;SDS011;2080;51.038;7.008;2022-10-15T07:15:48;807.03;;;735.67;;
4132;SDS011;2080;51.038;7.008;2022-10-15T07:18:18;795.97;;;724.27;;
4132;SDS011;2080;51.038;7.008;2022-10-15T07:20:43;815.70;;;742.57;;
4132;SDS011;2080;51.038;7.008;2022-10-15T07:23:09;770.57;;;701.20;;
4132;SDS011;2080;51.038;7.008;2022-10-15T07:25:34;876.10;;;797.63;;
4132;SDS011;2080;51.038;7.008;2022-10-15T07:28:00;782.03;;;710.77;;
4132;SDS011;2080;51.038;7.008;2022-10-15T07:30:26;913.63;;;832.10;;
4132;SDS011;2080;51.038;7.008;2022-10-15T07:32:57;759.40;;;691.10;;
4132;SDS011;2080;51.038;7.008;2022-10-15T07:35:24;919.40;;;838.47;;
4132;SDS011;2080;51.038;7.008;2022-10-15T07:37:53;737.27;;;670.53;;
4132;SDS011;2080;51.038;7.008;2022-10-15T07:40:18;725.17;;;659.43;;
4132;SDS011;2080;51.038;7.008;2022-10-15T07:42:44;706.63;;;640.90;;
4132;SDS011;2080;51.038;7.008;2022-10-15T07:45:15;557.03;;;501.43;;
4132;SDS011;2080;51.038;7.008;2022-10-15T07:47:41;638.20;;;578.53;;
4132;SDS011;2080;51.038;7.008;2022-10-15T07:50:06;686.07;;;623.83;;
4132;SDS011;2080;51.038;7.008;2022-10-15T07:52:34;721.40;;;657.47;;
4132;SDS011;2080;51.038;7.008;2022-10-15T07:55:02;687.33;;;625.63;;
4132;SDS011;2080;51.038;7.008;2022-10-15T07:57:28;654.27;;;594.60;;
4132;SDS011;2080;51.038;7.008;2022-10-15T07:59:53;614.80;;;557.00;;
4132;SDS011;2080;51.038;7.008;2022-10-15T08:02:21;655.50;;;595.77;;
4132;SDS011;2080;51.038;7.008;2022-10-15T08:04:49;669.20;;;609.10;;
4132;SDS011;2080;51.038;7.008;2022-10-15T08:07:16;687.63;;;626.27;;
4132;SDS011;2080;51.038;7.008;2022-10-15T08:09:44;667.73;;;607.80;;
4132;SDS011;2080;51.038;7.008;2022-10-15T08:12:09;692.93;;;631.23;;
4132;SDS011;2080;51.038;7.008;2022-10-15T08:14:35;784.97;;;717.27;;
4132;SDS011;2080;51.038;7.008;2022-10-15T08:17:01;784.20;;;716.73;;
4132;SDS011;2080;51.038;7.008;2022-10-15T08:19:28;830.03;;;759.97;;
4132;SDS011;2080;51.038;7.008;2022-10-15T08:21:55;810.30;;;741.20;;
4132;SDS011;2080;51.038;7.008;2022-10-15T08:24:21;855.47;;;782.00;;
4132;SDS011;2080;51.038;7.008;2022-10-15T08:26:47;869.77;;;794.60;;
4132;SDS011;2080;51.038;7.008;2022-10-15T08:29:13;913.03;;;832.97;;
4132;SDS011;2080;51.038;7.008;2022-10-15T08:31:45;885.43;;;809.50;;
4132;SDS011;2080;51.038;7.008;2022-10-15T08:34:13;932.23;;;851.13;;
4132;SDS011;2080;51.038;7.008;2022-10-15T08:36:41;933.97;;;851.13;;
4132;SDS011;2080;51.038;7.008;2022-10-15T08:39:06;959.20;;;875.60;;
4132;SDS011;2080;51.038;7.008;2022-10-15T08:44:05;1006.67;;;919.00;;
4132;SDS011;2080;51.038;7.008;2022-10-15T08:46:41;993.13;;;906.13;;
4132;SDS011;2080;51.038;7.008;2022-10-15T08:49:15;959.37;;;875.07;;
4132;SDS011;2080;51.038;7.008;2022-10-15T08:51:53;966.50;;;882.83;;
4132;SDS011;2080;51.038;7.008;2022-10-15T08:54:32;911.43;;;831.93;;
4132;SDS011;2080;51.038;7.008;2022-10-15T08:57:10;960.83;;;877.13;;
4132;SDS011;2080;51.038;7.008;2022-10-15T09:00:02;1002.10;;;915.83;;
4132;SDS011;2080;51.038;7.008;2022-10-15T09:02:42;869.33;;;793.70;;
4132;SDS011;2080;51.038;7.008;2022-10-15T09:11:03;905.43;;;827.13;;
4132;SDS011;2080;51.038;7.008;2022-10-15T09:13:38;928.47;;;847.30;;
4132;SDS011;2080;51.038;7.008;2022-10-15T09:18:49;1029.27;;;937.20;;
4132;SDS011;2080;51.038;7.008;2022-10-15T09:21:16;994.97;;;907.97;;
4132;SDS011;2080;51.038;7.008;2022-10-15T09:23:43;1000.00;;;912.33;;
4132;SDS011;2080;51.038;7.008;2022-10-15T09:34:55;1093.73;;;992.60;;
4132;SDS011;2080;51.038;7.008;2022-10-15T09:42:52;1101.90;;;994.47;;
4132;SDS011;2080;51.038;7.008;2022-10-15T09:45:21;983.80;;;891.13;;
4132;SDS011;2080;51.038;7.008;2022-10-15T09:47:50;1036.30;;;935.30;;
4132;SDS011;2080;51.038;7.008;2022-10-15T09:50:16;1049.97;;;947.90;;
4132;SDS011;2080;51.038;7.008;2022-10-15T09:58:10;675.93;;;609.40;;
4132;SDS011;2080;51.038;7.008;2022-10-15T10:00:59;894.33;;;810.53;;
4132;SDS011;2080;51.038;7.008;2022-10-15T10:03:29;710.53;;;645.00;;
4132;SDS011;2080;51.038;7.008;2022-10-15T10:06:06;794.23;;;719.43;;
4132;SDS011;2080;51.038;7.008;2022-10-15T10:08:34;747.00;;;677.03;;
4132;SDS011;2080;51.038;7.008;2022-10-15T10:11:13;643.47;;;581.57;;
4132;SDS011;2080;51.038;7.008;2022-10-15T10:13:40;1078.37;;;969.10;;
4132;SDS011;2080;51.038;7.008;2022-10-15T10:16:09;617.13;;;556.30;;
4132;SDS011;2080;51.038;7.008;2022-10-15T10:18:36;531.53;;;476.00;;
4132;SDS011;2080;51.038;7.008;2022-10-15T10:21:08;964.03;;;869.73;;
4132;SDS011;2080;51.038;7.008;2022-10-15T10:23:46;1141.03;;;999.90;;
4132;SDS011;2080;51.038;7.008;2022-10-15T10:26:13;1122.40;;;999.90;;
4132;SDS011;2080;51.038;7.008;2022-10-15T10:31:25;1117.30;;;998.80;;
4132;SDS011;2080;51.038;7.008;2022-10-15T10:33:59;1127.47;;;999.90;;
4132;SDS011;2080;51.038;7.008;2022-10-15T10:38:55;1008.57;;;909.70;;
4132;SDS011;2080;51.038;7.008;2022-10-15T10:49:30;802.77;;;729.73;;
4132;SDS011;2080;51.038;7.008;2022-10-15T10:51:57;1013.37;;;915.30;;
4132;SDS011;2080;51.038;7.008;2022-10-15T10:54:22;960.17;;;869.47;;
4132;SDS011;2080;51.038;7.008;2022-10-15T10:56:49;1007.07;;;908.40;;
4132;SDS011;2080;51.038;7.008;2022-10-15T10:59:22;1131.87;;;999.90;;
4132;SDS011;2080;51.038;7.008;2022-10-15T11:01:51;1093.53;;;987.50;;
4132;SDS011;2080;51.038;7.008;2022-10-15T11:06:57;1105.43;;;990.60;;
4132;SDS011;2080;51.038;7.008;2022-10-15T11:17:21;1135.77;;;999.90;;
4132;SDS011;2080;51.038;7.008;2022-10-15T11:20:02;1095.77;;;989.83;;
4132;SDS011;2080;51.038;7.008;2022-10-15T11:25:22;1126.07;;;999.90;;
4132;SDS011;2080;51.038;7.008;2022-10-15T11:38:24;1085.33;;;979.30;;
4132;SDS011;2080;51.038;7.008;2022-10-15T11:41:08;1077.70;;;971.93;;
4132;SDS011;2080;51.038;7.008;2022-10-15T11:46:25;1037.20;;;939.53;;
4132;SDS011;2080;51.038;7.008;2022-10-15T11:57:14;1109.53;;;997.33;;
4132;SDS011;2080;51.038;7.008;2022-10-15T11:59:53;1190.73;;;999.90;;
4132;SDS011;2080;51.038;7.008;2022-10-15T12:02:33;1083.73;;;979.80;;
4132;SDS011;2080;51.038;7.008;2022-10-15T12:12:41;1046.43;;;946.73;;
4132;SDS011;2080;51.038;7.008;2022-10-15T12:15:23;1187.93;;;999.90;;
4132;SDS011;2080;51.038;7.008;2022-10-15T12:17:53;1118.43;;;999.90;;
4132;SDS011;2080;51.038;7.008;2022-10-15T12:20:47;1172.90;;;999.90;;
4132;SDS011;2080;51.038;7.008;2022-10-15T12:26:12;1013.67;;;916.60;;
4132;SDS011;2080;51.038;7.008;2022-10-15T12:28:47;1029.90;;;929.20;;
4132;SDS011;2080;51.038;7.008;2022-10-15T12:31:20;995.33;;;901.77;;
4132;SDS011;2080;51.038;7.008;2022-10-15T12:33:50;1094.53;;;986.17;;
4132;SDS011;2080;51.038;7.008;2022-10-15T12:36:25;1103.77;;;995.97;;
4132;SDS011;2080;51.038;7.008;2022-10-15T12:41:42;1076.97;;;972.30;;
4132;SDS011;2080;51.038;7.008;2022-10-15T12:44:14;1151.57;;;999.90;;
4132;SDS011;2080;51.038;7.008;2022-10-15T12:46:45;1091.73;;;983.63;;
4132;SDS011;2080;51.038;7.008;2022-10-15T12:51:52;1118.10;;;999.90;;
4132;SDS011;2080;51.038;7.008;2022-10-15T12:54:32;1076.20;;;970.20;;
4132;SDS011;2080;51.038;7.008;2022-10-15T13:00:48;1120.70;;;998.37;;
4132;SDS011;2080;51.038;7.008;2022-10-15T13:02:55;1108.90;;;994.07;;
4132;SDS011;2080;51.038;7.008;2022-10-15T13:05:32;1173.90;;;999.90;;
4132;SDS011;2080;51.038;7.008;2022-10-15T13:08:03;1133.23;;;999.90;;
4132;SDS011;2080;51.038;7.008;2022-10-15T13:10:51;1078.43;;;969.67;;
4132;SDS011;2080;51.038;7.008;2022-10-15T13:13:28;1080.87;;;975.13;;
4132;SDS011;2080;51.038;7.008;2022-10-15T13:16:05;1131.53;;;999.90;;
4132;SDS011;2080;51.038;7.008;2022-10-15T13:18:36;967.50;;;875.40;;
4132;SDS011;2080;51.038;7.008;2022-10-15T13:21:07;1026.67;;;925.00;;
4132;SDS011;2080;51.038;7.008;2022-10-15T13:23:35;987.53;;;891.10;;
4132;SDS011;2080;51.038;7.008;2022-10-15T13:26:10;1032.63;;;931.40;;
4132;SDS011;2080;51.038;7.008;2022-10-15T13:28:39;806.83;;;733.57;;
4132;SDS011;2080;51.038;7.008;2022-10-15T13:31:18;1010.67;;;907.97;;
4132;SDS011;2080;51.038;7.008;2022-10-15T13:33:46;961.80;;;875.03;;
4132;SDS011;2080;51.038;7.008;2022-10-15T13:36:18;963.83;;;870.67;;
4132;SDS011;2080;51.038;7.008;2022-10-15T13:38:59;1150.67;;;999.90;;
4132;SDS011;2080;51.038;7.008;2022-10-15T13:41:30;726.27;;;655.80;;
4132;SDS011;2080;51.038;7.008;2022-10-15T13:44:01;947.80;;;857.57;;
4132;SDS011;2080;51.038;7.008;2022-10-15T13:46:31;762.33;;;695.27;;
4132;SDS011;2080;51.038;7.008;2022-10-15T13:49:01;752.23;;;683.90;;
4132;SDS011;2080;51.038;7.008;2022-10-15T13:51:47;729.33;;;663.60;;
4132;SDS011;2080;51.038;7.008;2022-10-15T13:54:24;774.17;;;704.17;;
4132;SDS011;2080;51.038;7.008;2022-10-15T13:56:58;812.50;;;739.50;;
4132;SDS011;2080;51.038;7.008;2022-10-15T13:59:28;687.77;;;625.20;;
4132;SDS011;2080;51.038;7.008;2022-10-15T14:01:56;1024.03;;;924.03;;
4132;SDS011;2080;51.038;7.008;2022-10-15T14:04:25;804.40;;;733.20;;
4132;SDS011;2080;51.038;7.008;2022-10-15T14:06:56;732.03;;;661.97;;
4132;SDS011;2080;51.038;7.008;2022-10-15T14:12:04;713.03;;;647.93;;
4132;SDS011;2080;51.038;7.008;2022-10-15T14:16:56;842.40;;;757.83;;
4132;SDS011;2080;51.038;7.008;2022-10-15T14:19:23;629.13;;;568.73;;
4132;SDS011;2080;51.038;7.008;2022-10-15T14:21:57;762.97;;;694.63;;
4132;SDS011;2080;51.038;7.008;2022-10-15T14:24:28;707.33;;;641.13;;
4132;SDS011;2080;51.038;7.008;2022-10-15T14:27:01;901.57;;;819.57;;
4132;SDS011;2080;51.038;7.008;2022-10-15T14:29:33;697.60;;;634.33;;
4132;SDS011;2080;51.038;7.008;2022-10-15T14:32:01;839.30;;;762.30;;
4132;SDS011;2080;51.038;7.008;2022-10-15T14:36:57;829.57;;;754.67;;
4132;SDS011;2080;51.038;7.008;2022-10-15T14:39:35;878.00;;;798.10;;
4132;SDS011;2080;51.038;7.008;2022-10-15T14:44:47;884.20;;;801.57;;
4132;SDS011;2080;51.038;7.008;2022-10-15T14:47:24;953.87;;;862.80;;
4132;SDS011;2080;51.038;7.008;2022-10-15T14:49:53;793.90;;;722.27;;
4132;SDS011;2080;51.038;7.008;2022-10-15T14:52:23;922.73;;;836.93;;
4132;SDS011;2080;51.038;7.008;2022-10-15T14:57:22;1127.63;;;999.90;;
4132;SDS011;2080;51.038;7.008;2022-10-15T14:59:50;1079.23;;;973.03;;
4132;SDS011;2080;51.038;7.008;2022-10-15T15:02:21;1180.03;;;999.90;;
4132;SDS011;2080;51.038;7.008;2022-10-15T15:05:06;1218.67;;;999.90;;
4132;SDS011;2080;51.038;7.008;2022-10-15T15:07:40;1203.87;;;999.90;;
4132;SDS011;2080;51.038;7.008;2022-10-15T15:10:08;1178.70;;;999.90;;
4132;SDS011;2080;51.038;7.008;2022-10-15T15:12:36;1100.40;;;993.03;;
4132;SDS011;2080;51.038;7.008;2022-10-15T15:15:04;1152.77;;;999.90;;
4132;SDS011;2080;51.038;7.008;2022-10-15T15:17:36;1074.97;;;966.10;;
4132;SDS011;2080;51.038;7.008;2022-10-15T15:20:04;1210.87;;;999.90;;
4132;SDS011;2080;51.038;7.008;2022-10-15T15:22:30;1135.27;;;999.90;;
4132;SDS011;2080;51.038;7.008;2022-10-15T15:25:05;1151.50;;;999.90;;
4132;SDS011;2080;51.038;7.008;2022-10-15T15:27:37;1131.20;;;999.90;;
4132;SDS011;2080;51.038;7.008;2022-10-15T15:30:05;1142.97;;;999.90;;
4132;SDS011;2080;51.038;7.008;2022-10-15T15:32:32;1161.70;;;999.90;;
4132;SDS011;2080;51.038;7.008;2022-10-15T15:34:58;1090.77;;;991.77;;
4132;SDS011;2080;51.038;7.008;2022-10-15T15:37:24;1093.10;;;995.90;;
4132;SDS011;2080;51.038;7.008;2022-10-15T15:39:50;1063.50;;;960.13;;
4132;SDS011;2080;51.038;7.008;2022-10-15T15:42:17;1047.67;;;952.77;;
4132;SDS011;2080;51.038;7.008;2022-10-15T15:44:48;987.90;;;898.87;;
4132;SDS011;2080;51.038;7.008;2022-10-15T15:47:13;908.90;;;828.47;;
4132;SDS011;2080;51.038;7.008;2022-10-15T15:49:39;904.80;;;824.90;;
4132;SDS011;2080;51.038;7.008;2022-10-15T15:52:10;924.47;;;843.07;;
4132;SDS011;2080;51.038;7.008;2022-10-15T15:54:38;919.10;;;836.13;;
4132;SDS011;2080;51.038;7.008;2022-10-15T15:57:07;858.80;;;782.23;;
4132;SDS011;2080;51.038;7.008;2022-10-15T15:59:35;765.47;;;696.70;;
4132;SDS011;2080;51.038;7.008;2022-10-15T16:02:00;837.17;;;760.20;;
4132;SDS011;2080;51.038;7.008;2022-10-15T16:04:26;794.50;;;724.43;;
4132;SDS011;2080;51.038;7.008;2022-10-15T16:06:54;871.53;;;791.17;;
4132;SDS011;2080;51.038;7.008;2022-10-15T16:09:19;827.40;;;755.90;;
4132;SDS011;2080;51.038;7.008;2022-10-15T16:11:49;834.13;;;760.53;;
4132;SDS011;2080;51.038;7.008;2022-10-15T16:14:15;856.03;;;780.63;;
4132;SDS011;2080;51.038;7.008;2022-10-15T16:16:40;827.07;;;754.43;;
4132;SDS011;2080;51.038;7.008;2022-10-15T16:19:08;885.30;;;803.97;;
4132;SDS011;2080;51.038;7.008;2022-10-15T16:21:33;899.60;;;815.37;;
4132;SDS011;2080;51.038;7.008;2022-10-15T16:23:59;911.40;;;827.83;;
4132;SDS011;2080;51.038;7.008;2022-10-15T16:26:24;876.73;;;798.47;;
4132;SDS011;2080;51.038;7.008;2022-10-15T16:28:52;806.03;;;733.23;;
4132;SDS011;2080;51.038;7.008;2022-10-15T16:31:25;908.43;;;823.03;;
4132;SDS011;2080;51.038;7.008;2022-10-15T16:33:53;804.40;;;727.97;;
4132;SDS011;2080;51.038;7.008;2022-10-15T16:36:19;879.40;;;797.33;;
4132;SDS011;2080;51.038;7.008;2022-10-15T16:38:47;866.03;;;786.83;;
4132;SDS011;2080;51.038;7.008;2022-10-15T16:41:13;746.10;;;678.83;;